createdAt,value
2019-02-21T00:01:22.412Z,68.59
2019-02-21T00:03:51.840Z,68.56
2019-02-21T00:06:20.964Z,69.07
2019-02-21T00:08:50.081Z,69.06
2019-02-21T00:11:19.202Z,69.56
2019-02-21T00:13:48.316Z,69.84
2019-02-21T00:16:17.432Z,69.61
2019-02-21T00:18:46.550Z,71.68
2019-02-21T00:21:15.660Z,70.86
2019-02-21T00:23:44.786Z,71.13
2019-02-21T00:26:13.899Z,71.36
2019-02-21T00:28:43.027Z,72.32
2019-02-21T00:31:12.155Z,71.78
2019-02-21T00:33:41.274Z,71.34
2019-02-21T00:36:10.639Z,71.29
2019-02-21T00:38:39.759Z,70.99
2019-02-21T00:41:08.883Z,70.96
2019-02-21T00:43:37.999Z,71.02
2019-02-21T00:46:07.127Z,70.66
2019-02-21T00:48:36.241Z,71.18
2019-02-21T00:51:05.414Z,71.30
2019-02-21T00:53:34.525Z,71.28
2019-02-21T00:56:03.661Z,71.28
2019-02-21T00:58:33.013Z,70.93
2019-02-21T01:01:02.411Z,70.60
2019-02-21T01:03:31.515Z,70.30
2019-02-21T01:06:00.887Z,69.86
2019-02-21T01:08:30.299Z,69.58
2019-02-21T01:10:59.416Z,69.43
2019-02-21T01:13:29.007Z,69.50
2019-02-21T01:15:58.120Z,69.71
2019-02-21T01:18:27.243Z,69.79
2019-02-21T01:20:56.366Z,70.16
2019-02-21T01:23:25.493Z,70.09
2019-02-21T01:25:54.613Z,70.12
2019-02-21T01:28:23.732Z,70.26
2019-02-21T01:30:56.969Z,70.53
2019-02-21T01:33:23.677Z,70.92
2019-02-21T01:35:52.780Z,70.38
2019-02-21T01:38:21.903Z,70.65
2019-02-21T01:40:51.092Z,70.85
2019-02-21T01:43:20.212Z,70.44
2019-02-21T01:45:49.635Z,70.46
2019-02-21T01:48:18.770Z,70.66
2019-02-21T01:50:47.851Z,71.08
2019-02-21T01:53:16.986Z,70.96
2019-02-21T01:55:46.089Z,70.75
2019-02-21T01:58:16.206Z,70.53
2019-02-21T02:00:45.302Z,70.78
2019-02-21T02:03:14.472Z,70.65
2019-02-21T02:05:43.608Z,70.52
2019-02-21T02:08:12.762Z,70.52
2019-02-21T02:10:41.840Z,70.55
2019-02-21T02:13:23.800Z,71.10
2019-02-21T02:15:41.777Z,70.94
2019-02-21T02:18:10.893Z,70.87
2019-02-21T02:20:40.344Z,71.10
2019-02-21T02:23:09.473Z,71.41
2019-02-21T02:25:38.589Z,71.62
2019-02-21T02:28:07.713Z,71.92
2019-02-21T02:30:36.836Z,72.69
2019-02-21T02:33:06.051Z,72.77
2019-02-21T02:35:35.178Z,72.78
2019-02-21T02:38:04.303Z,72.58
2019-02-21T02:40:33.478Z,72.32
2019-02-21T02:43:02.551Z,72.36
2019-02-21T02:45:31.693Z,72.01
2019-02-21T02:48:01.029Z,72.12
2019-02-21T02:50:31.117Z,72.19
2019-02-21T02:53:00.248Z,72.19
2019-02-21T02:55:29.368Z,71.69
2019-02-21T02:57:58.741Z,71.52
2019-02-21T03:00:27.864Z,71.48
2019-02-21T03:02:57.023Z,71.23
2019-02-21T03:05:26.141Z,71.84
2019-02-21T03:07:55.264Z,71.53
2019-02-21T03:10:24.380Z,71.79
2019-02-21T03:12:53.501Z,72.02
2019-02-21T03:15:22.622Z,72.30
2019-02-21T03:17:51.761Z,71.93
2019-02-21T03:20:20.869Z,72.32
2019-02-21T03:22:49.987Z,72.23
2019-02-21T03:25:19.108Z,72.02
2019-02-21T03:27:48.228Z,72.03
2019-02-21T03:30:17.369Z,71.89
2019-02-21T03:32:46.487Z,72.30
2019-02-21T03:35:15.608Z,72.09
2019-02-21T03:37:44.730Z,71.89
2019-02-21T03:40:13.851Z,71.96
2019-02-21T03:42:42.970Z,72.05
2019-02-21T03:45:13.454Z,72.06
2019-02-21T03:47:44.603Z,72.31
2019-02-21T03:50:13.383Z,72.06
2019-02-21T03:52:42.499Z,72.66
2019-02-21T03:55:11.622Z,72.55
2019-02-21T03:57:40.744Z,72.35
2019-02-21T04:00:11.418Z,72.84
2019-02-21T04:02:40.776Z,72.44
2019-02-21T04:05:09.897Z,72.28
2019-02-21T04:07:39.016Z,72.09
2019-02-21T04:10:09.072Z,71.97
2019-02-21T04:12:38.200Z,72.16
2019-02-21T04:15:09.623Z,71.94
2019-02-21T04:17:38.741Z,71.92
2019-02-21T04:20:08.800Z,72.32
2019-02-21T04:22:37.918Z,72.79
2019-02-21T04:25:07.044Z,73.04
2019-02-21T04:27:36.163Z,73.43
2019-02-21T04:30:05.920Z,74.17
2019-02-21T04:32:35.051Z,74.28
2019-02-21T04:35:04.433Z,74.14
2019-02-21T04:37:33.564Z,74.21
2019-02-21T04:40:02.919Z,74.15
2019-02-21T04:42:32.041Z,74.31
2019-02-21T04:45:01.161Z,74.15
2019-02-21T04:47:30.354Z,74.51
2019-02-21T04:49:59.470Z,74.64
2019-02-21T04:52:28.604Z,74.65
2019-02-21T04:54:57.762Z,74.53
2019-02-21T04:57:26.889Z,75.47
2019-02-21T04:59:56.012Z,76.00
2019-02-21T05:02:29.269Z,75.83
2019-02-21T05:04:55.947Z,76.19
2019-02-21T05:07:25.078Z,76.24
2019-02-21T05:09:58.058Z,76.18
2019-02-21T05:12:25.024Z,75.73
2019-02-21T05:14:54.151Z,76.05
2019-02-21T05:17:23.269Z,75.28
2019-02-21T05:19:52.386Z,76.24
2019-02-21T05:22:21.798Z,76.29
2019-02-21T05:24:50.914Z,76.02
2019-02-21T05:27:21.671Z,76.19
2019-02-21T05:29:50.786Z,75.86
2019-02-21T05:32:40.219Z,75.91
2019-02-21T05:35:18.776Z,75.70
2019-02-21T05:37:52.193Z,75.75
2019-02-21T05:40:37.914Z,75.40
2019-02-21T05:43:15.097Z,75.78
2019-02-21T05:45:48.746Z,75.86
2019-02-21T05:48:25.472Z,75.72
2019-02-21T05:50:59.298Z,75.35
2019-02-21T05:53:29.394Z,75.33
2019-02-21T05:56:05.719Z,75.38
2019-02-21T05:58:42.348Z,75.59
2019-02-21T06:01:15.751Z,75.40
2019-02-21T06:03:50.567Z,75.12
2019-02-21T06:06:20.673Z,75.60
2019-02-21T06:08:51.323Z,75.39
2019-02-21T06:14:24.014Z,75.87
2019-02-21T06:17:03.937Z,75.48
2019-02-21T06:19:34.702Z,75.27
2019-02-21T06:22:11.020Z,76.46
2019-02-21T06:24:40.974Z,76.85
2019-02-21T06:27:12.370Z,77.17
2019-02-21T06:29:43.397Z,77.43
2019-02-21T06:32:14.502Z,76.93
2019-02-21T06:34:43.279Z,77.09
2019-02-21T06:37:12.790Z,77.31
2019-02-21T06:39:42.006Z,77.36
2019-02-21T06:42:11.126Z,77.51
2019-02-21T06:44:40.391Z,77.39
2019-02-21T06:47:09.561Z,77.25
2019-02-21T06:49:38.684Z,77.53
2019-02-21T06:52:07.798Z,77.11
2019-02-21T06:54:36.917Z,77.66
2019-02-21T06:57:06.052Z,78.17
2019-02-21T06:59:43.357Z,78.31
2019-02-21T07:02:06.036Z,78.32
2019-02-21T07:04:35.170Z,77.89
2019-02-21T07:07:04.276Z,78.00
2019-02-21T07:09:33.394Z,78.22
2019-02-21T07:12:02.832Z,78.33
2019-02-21T07:14:34.415Z,78.02
2019-02-21T07:17:03.063Z,78.05
2019-02-21T07:19:32.188Z,78.20
2019-02-21T07:22:01.310Z,78.23
2019-02-21T07:24:30.986Z,78.21
2019-02-21T07:27:00.382Z,78.02
2019-02-21T07:29:30.510Z,78.00
2019-02-21T07:31:59.927Z,78.41
2019-02-21T07:34:30.486Z,78.01
2019-02-21T07:36:59.727Z,77.61
2019-02-21T07:39:36.187Z,77.69
2019-02-21T07:41:59.665Z,77.56
2019-02-21T07:44:28.783Z,77.52
2019-02-21T07:46:57.903Z,77.59
2019-02-21T07:49:27.034Z,77.31
2019-02-21T07:51:56.466Z,77.01
2019-02-21T07:54:25.596Z,76.92
2019-02-21T07:56:54.720Z,76.98
2019-02-21T07:59:23.838Z,76.85
2019-02-21T08:01:52.968Z,77.11
2019-02-21T08:04:22.091Z,77.26
2019-02-21T08:06:55.426Z,77.43
2019-02-21T08:09:23.134Z,77.28
2019-02-21T08:11:52.245Z,77.21
2019-02-21T08:14:21.362Z,76.77
2019-02-21T08:16:50.490Z,76.41
2019-02-21T08:19:19.607Z,76.32
2019-02-21T08:21:48.905Z,76.40
2019-02-21T08:24:18.034Z,76.32
2019-02-21T08:26:47.295Z,75.82
2019-02-21T08:29:16.398Z,75.31
2019-02-21T08:31:45.538Z,75.55
2019-02-21T08:34:16.294Z,75.39
2019-02-21T08:36:45.414Z,75.16
2019-02-21T08:39:14.578Z,75.34
2019-02-21T08:41:43.703Z,75.69
2019-02-21T08:44:12.826Z,75.61
2019-02-21T08:46:41.955Z,75.34
2019-02-21T08:49:11.108Z,75.12
2019-02-21T08:51:40.299Z,74.78
2019-02-21T08:54:11.385Z,75.21
2019-02-21T08:56:40.240Z,74.77
2019-02-21T08:59:09.606Z,74.63
2019-02-21T09:01:38.724Z,74.54
2019-02-21T09:04:13.591Z,74.48
2019-02-21T09:06:38.675Z,74.47
2019-02-21T09:09:07.849Z,74.29
2019-02-21T09:11:37.128Z,74.12
2019-02-21T09:14:06.257Z,74.49
2019-02-21T09:16:35.376Z,74.48
2019-02-21T09:19:04.507Z,74.63
2019-02-21T09:21:35.001Z,74.62
2019-02-21T09:24:04.363Z,74.13
2019-02-21T09:26:34.780Z,74.23
2019-02-21T09:29:03.859Z,73.20
2019-02-21T09:31:33.216Z,73.29
2019-02-21T09:34:02.347Z,72.67
2019-02-21T09:36:31.701Z,72.71
2019-02-21T09:39:00.822Z,72.40
2019-02-21T09:41:32.164Z,72.23
2019-02-21T09:44:01.478Z,71.73
2019-02-21T09:46:30.912Z,71.95
2019-02-21T09:49:02.845Z,72.01
2019-02-21T09:51:31.078Z,71.51
2019-02-21T09:54:00.439Z,71.33
2019-02-21T09:56:30.869Z,71.14
2019-02-21T09:59:00.051Z,71.13
2019-02-21T10:01:29.405Z,71.33
2019-02-21T10:03:58.526Z,70.98
2019-02-21T10:06:27.653Z,70.81
2019-02-21T10:08:56.772Z,70.75
2019-02-21T10:11:25.891Z,70.71
2019-02-21T10:13:55.022Z,70.39
2019-02-21T10:16:24.137Z,70.25
2019-02-21T10:18:53.262Z,70.27
2019-02-21T10:21:22.382Z,70.80
2019-02-21T10:23:51.496Z,70.79
2019-02-21T10:26:20.633Z,70.77
2019-02-21T10:28:50.001Z,70.62
2019-02-21T10:31:19.134Z,70.66
2019-02-21T10:33:48.251Z,70.51
2019-02-21T10:36:17.378Z,70.04
2019-02-21T10:38:46.500Z,69.80
2019-02-21T10:41:15.626Z,69.20
2019-02-21T10:43:44.744Z,69.06
2019-02-21T10:46:14.101Z,68.64
2019-02-21T10:48:43.223Z,68.72
2019-02-21T10:51:12.354Z,68.32
2019-02-21T10:53:41.479Z,68.62
2019-02-21T10:56:10.626Z,68.04
2019-02-21T10:58:40.714Z,65.88
2019-02-21T11:01:09.848Z,63.92
2019-02-21T11:03:38.971Z,61.69
2019-02-21T11:06:08.103Z,60.26
2019-02-21T11:08:37.460Z,58.11
2019-02-21T11:11:06.598Z,55.74
2019-02-21T11:13:35.739Z,52.05
2019-02-21T11:16:04.848Z,50.36
2019-02-21T11:18:33.972Z,46.94
2019-02-21T11:21:03.106Z,45.25
2019-02-21T11:23:32.229Z,42.66
2019-02-21T11:26:01.360Z,41.01
2019-02-21T11:28:30.493Z,37.35
2019-02-21T11:30:59.685Z,34.88
2019-02-21T11:33:28.817Z,33.84
2019-02-21T11:35:57.917Z,32.36
2019-02-21T11:38:27.065Z,33.47
2019-02-21T11:40:56.172Z,36.38
2019-02-21T11:43:25.322Z,37.98
2019-02-21T11:45:57.376Z,39.42
2019-02-21T11:48:25.275Z,40.74
2019-02-21T11:50:54.633Z,41.35
2019-02-21T11:53:23.761Z,42.60
2019-02-21T11:55:52.882Z,41.26
2019-02-21T11:58:22.013Z,44.49
2019-02-21T12:00:51.135Z,45.43
2019-02-21T12:03:21.316Z,45.33
2019-02-21T12:05:50.568Z,45.72
2019-02-21T12:08:19.695Z,44.82
2019-02-21T12:10:50.905Z,45.64
2019-02-21T12:13:19.647Z,44.21
2019-02-21T12:15:48.774Z,43.24
2019-02-21T12:18:18.149Z,40.84
2019-02-21T12:20:47.253Z,39.07
2019-02-21T12:23:17.798Z,39.06
2019-02-21T12:25:46.979Z,36.51
2019-02-21T12:28:16.103Z,32.77
2019-02-21T12:30:45.223Z,29.79
2019-02-21T12:33:14.384Z,30.13
2019-02-21T12:35:43.711Z,31.88
2019-02-21T12:38:12.856Z,34.10
2019-02-21T12:40:41.962Z,38.22
2019-02-21T12:43:11.114Z,39.80
2019-02-21T12:45:40.227Z,41.20
2019-02-21T12:48:09.358Z,43.88
2019-02-21T12:50:44.393Z,44.87
2019-02-21T12:53:09.314Z,46.13
2019-02-21T12:55:38.435Z,47.13
2019-02-21T12:58:07.622Z,47.12
2019-02-21T13:00:36.746Z,45.29
2019-02-21T13:03:05.823Z,48.74
2019-02-21T13:05:40.915Z,50.03
2019-02-21T13:08:05.789Z,51.08
2019-02-21T13:10:35.135Z,51.16
2019-02-21T13:13:04.220Z,50.42
2019-02-21T13:15:33.583Z,50.38
2019-02-21T13:18:02.712Z,50.00
2019-02-21T13:20:31.839Z,50.44
2019-02-21T13:23:01.198Z,51.18
2019-02-21T13:25:30.609Z,53.06
2019-02-21T13:27:59.933Z,53.87
2019-02-21T13:30:29.062Z,54.28
2019-02-21T13:32:58.184Z,53.45
2019-02-21T13:35:29.275Z,54.13
2019-02-21T13:37:58.131Z,53.73
2019-02-21T13:40:27.270Z,54.38
2019-02-21T13:42:56.391Z,53.93
2019-02-21T13:45:25.750Z,54.32
2019-02-21T13:47:54.871Z,53.99
2019-02-21T13:50:24.060Z,54.23
2019-02-21T13:52:53.141Z,54.61
2019-02-21T13:55:22.276Z,54.55
2019-02-21T13:57:51.403Z,53.76
2019-02-21T14:00:21.903Z,54.62
2019-02-21T14:02:51.026Z,54.51
2019-02-21T14:05:20.153Z,53.99
2019-02-21T14:07:50.103Z,53.60
2019-02-21T14:10:19.227Z,54.08
2019-02-21T14:12:48.596Z,53.29
2019-02-21T14:15:20.723Z,52.88
2019-02-21T14:17:49.898Z,52.65
2019-02-21T14:20:19.003Z,52.25
2019-02-21T14:22:48.123Z,51.92
2019-02-21T14:25:17.263Z,51.03
2019-02-21T14:27:46.618Z,50.92
2019-02-21T14:30:19.848Z,51.29
2019-02-21T14:32:48.970Z,52.50
2019-02-21T14:35:18.116Z,52.27
2019-02-21T14:37:47.234Z,53.26
2019-02-21T14:40:17.099Z,52.26
2019-02-21T14:42:46.226Z,52.58
2019-02-21T14:45:23.640Z,52.37
2019-02-21T14:47:52.761Z,52.14
2019-02-21T14:50:21.883Z,52.23
2019-02-21T14:52:51.011Z,52.49
2019-02-21T14:55:20.374Z,53.57
2019-02-21T14:57:49.516Z,53.28
2019-02-21T15:00:26.728Z,54.59
2019-02-21T15:02:57.754Z,54.69
2019-02-21T15:05:27.837Z,54.28
2019-02-21T15:07:56.967Z,53.90
2019-02-21T15:10:26.091Z,53.90
2019-02-21T15:12:55.460Z,53.98
2019-02-21T15:15:26.494Z,53.74
2019-02-21T15:18:06.577Z,53.23
2019-02-21T15:20:36.189Z,52.81
2019-02-21T15:22:57.272Z,53.13
2019-02-21T15:25:26.402Z,53.47
2019-02-21T15:27:55.535Z,54.07
2019-02-21T15:30:27.328Z,55.07
2019-02-21T15:32:56.460Z,55.32
2019-02-21T15:35:25.591Z,55.56
2019-02-21T15:37:54.726Z,55.72
2019-02-21T15:40:24.087Z,55.92
2019-02-21T15:42:53.238Z,56.58
2019-02-21T15:45:29.477Z,56.62
2019-02-21T15:47:58.607Z,57.22
2019-02-21T15:50:27.735Z,57.51
2019-02-21T15:52:57.194Z,57.65
2019-02-21T15:55:26.331Z,57.22
2019-02-21T15:58:03.820Z,56.61
2019-02-21T16:00:26.284Z,56.50
2019-02-21T16:02:55.415Z,56.15
2019-02-21T16:05:24.574Z,55.98
2019-02-21T16:07:53.689Z,56.21
2019-02-21T16:10:25.227Z,55.95
2019-02-21T16:12:54.640Z,55.79
2019-02-21T16:15:24.032Z,55.34
2019-02-21T16:17:53.147Z,55.64
2019-02-21T16:20:22.280Z,55.80
2019-02-21T16:22:51.436Z,55.87
2019-02-21T16:25:31.643Z,55.71
2019-02-21T16:28:00.783Z,55.68
2019-02-21T16:30:29.898Z,55.98
2019-02-21T16:32:59.059Z,56.18
2019-02-21T16:35:28.184Z,56.01
2019-02-21T16:37:57.317Z,55.99
2019-02-21T16:40:26.447Z,56.33
2019-02-21T16:42:56.549Z,56.42
2019-02-21T16:45:25.674Z,56.34
2019-02-21T16:47:54.810Z,56.11
2019-02-21T16:50:29.717Z,55.97
2019-02-21T16:52:54.762Z,56.45
2019-02-21T16:55:24.626Z,56.43
2019-02-21T16:57:53.988Z,56.52
2019-02-21T17:00:23.852Z,56.17
2019-02-21T17:02:52.987Z,56.41
2019-02-21T17:05:22.108Z,56.38
2019-02-21T17:07:51.235Z,56.42
2019-02-21T17:10:20.354Z,56.61
2019-02-21T17:12:49.525Z,56.34
2019-02-21T17:15:18.967Z,56.97
2019-02-21T17:17:48.082Z,57.79
2019-02-21T17:20:21.654Z,58.79
2019-02-21T17:22:50.773Z,59.44
2019-02-21T17:25:19.902Z,60.44
2019-02-21T17:27:50.819Z,60.62
2019-02-21T17:30:20.255Z,60.66
2019-02-21T17:32:49.375Z,61.71
2019-02-21T17:35:18.497Z,62.44
2019-02-21T17:37:47.718Z,64.41
2019-02-21T17:40:22.496Z,65.17
2019-02-21T17:42:51.623Z,65.97
2019-02-21T17:45:20.758Z,66.51
2019-02-21T17:47:49.885Z,67.43
2019-02-21T17:50:19.983Z,68.54
2019-02-21T17:52:49.383Z,68.62
2019-02-21T17:55:18.588Z,68.89
2019-02-21T17:57:47.715Z,69.39
2019-02-21T18:00:23.202Z,69.73
2019-02-21T18:02:52.343Z,69.47
2019-02-21T18:05:21.466Z,69.24
2019-02-21T18:07:50.841Z,69.44
2019-02-21T18:10:19.963Z,69.80
2019-02-21T18:12:49.085Z,69.88
2019-02-21T18:15:18.461Z,69.41
2019-02-21T18:17:47.586Z,69.26
2019-02-21T18:20:16.795Z,68.60
2019-02-21T18:22:45.970Z,67.89
2019-02-21T18:25:18.453Z,68.17
2019-02-21T18:27:47.648Z,67.59
2019-02-21T18:30:17.495Z,67.32
2019-02-21T18:32:46.854Z,67.17
2019-02-21T18:35:15.985Z,67.13
2019-02-21T18:37:47.689Z,67.21
2019-02-21T18:40:23.660Z,66.63
2019-02-21T18:42:53.012Z,66.99
2019-02-21T18:45:22.143Z,66.94
2019-02-21T18:47:52.232Z,67.32
2019-02-21T18:50:21.595Z,67.58
2019-02-21T18:52:50.717Z,67.05
2019-02-21T18:55:19.860Z,67.30
2019-02-21T18:57:48.980Z,66.90
2019-02-21T19:00:22.446Z,66.16
2019-02-21T19:02:51.806Z,66.38
2019-02-21T19:05:21.484Z,66.96
2019-02-21T19:07:59.629Z,66.60
2019-02-21T19:10:22.487Z,66.90
2019-02-21T19:12:51.610Z,66.94
2019-02-21T19:15:21.667Z,67.28
2019-02-21T19:17:50.803Z,67.04
2019-02-21T19:20:21.184Z,67.09
2019-02-21T19:22:50.294Z,67.57
2019-02-21T19:25:19.426Z,67.56
2019-02-21T19:27:48.546Z,67.18
2019-02-21T19:30:25.664Z,67.01
2019-02-21T19:32:54.558Z,67.72
2019-02-21T19:35:23.722Z,67.76
2019-02-21T19:37:52.844Z,67.46
2019-02-21T19:40:21.975Z,67.44
2019-02-21T19:42:52.309Z,67.69
2019-02-21T19:45:21.677Z,67.90
2019-02-21T19:47:51.051Z,68.19
2019-02-21T19:50:20.163Z,68.46
2019-02-21T19:52:49.297Z,68.95
2019-02-21T19:55:18.650Z,69.24
2019-02-21T19:57:47.774Z,70.05
2019-02-21T20:00:24.091Z,70.21
2019-02-21T20:02:53.529Z,71.43
2019-02-21T20:05:22.724Z,71.72
2019-02-21T20:07:51.858Z,72.22
2019-02-21T20:10:20.985Z,72.56
2019-02-21T20:12:50.115Z,73.19
2019-02-21T20:15:19.257Z,74.20
2019-02-21T20:17:48.382Z,74.05
2019-02-21T20:20:19.759Z,74.66
2019-02-21T20:22:48.906Z,74.82
2019-02-21T20:25:18.014Z,74.53
2019-02-21T20:27:47.210Z,74.09
2019-02-21T20:30:17.590Z,74.72
2019-02-21T20:32:46.772Z,74.77
2019-02-21T20:35:16.142Z,75.29
2019-02-21T20:37:45.286Z,75.26
2019-02-21T20:40:14.632Z,75.80
2019-02-21T20:42:43.843Z,76.82
2019-02-21T20:45:14.105Z,76.67
2019-02-21T20:47:43.238Z,78.10
2019-02-21T20:50:12.600Z,78.37
2019-02-21T20:52:41.733Z,79.26
2019-02-21T20:55:11.410Z,79.94
2019-02-21T20:57:40.542Z,79.67
2019-02-21T21:00:15.343Z,79.70
2019-02-21T21:02:45.991Z,80.34
2019-02-21T21:05:15.136Z,80.79
2019-02-21T21:07:44.567Z,80.56
2019-02-21T21:10:16.051Z,80.22
2019-02-21T21:12:45.173Z,81.00
2019-02-21T21:15:14.766Z,80.91
2019-02-21T21:17:43.900Z,80.89
2019-02-21T21:20:16.847Z,80.63
2019-02-21T21:22:45.316Z,80.84
2019-02-21T21:25:15.799Z,80.64
2019-02-21T21:27:44.976Z,80.35
2019-02-21T21:30:16.224Z,80.11
2019-02-21T21:32:45.426Z,80.55
2019-02-21T21:35:14.547Z,80.43
2019-02-21T21:37:43.743Z,80.40
2019-02-21T21:40:17.733Z,80.30
2019-02-21T21:42:46.864Z,79.96
2019-02-21T21:45:18.790Z,79.77
2019-02-21T21:47:47.931Z,80.06
2019-02-21T21:50:18.393Z,80.22
2019-02-21T21:52:47.699Z,80.29
2019-02-21T21:55:16.829Z,80.27
2019-02-21T21:57:45.951Z,80.26
2019-02-21T22:00:20.549Z,80.26
2019-02-21T22:02:49.702Z,80.48
2019-02-21T22:05:18.827Z,80.50
2019-02-21T22:07:49.399Z,80.57
2019-02-21T22:10:18.986Z,81.30
2019-02-21T22:12:48.113Z,81.31
2019-02-21T22:15:25.241Z,82.08
2019-02-21T22:17:54.496Z,81.60
2019-02-21T22:20:23.855Z,81.87
2019-02-21T22:22:52.979Z,82.58
2019-02-21T22:25:22.341Z,82.56
2019-02-21T22:27:51.461Z,82.49
2019-02-21T22:30:20.973Z,82.65
2019-02-21T22:32:50.100Z,82.12
2019-02-21T22:35:19.463Z,82.10
2019-02-21T22:37:48.588Z,82.80
2019-02-21T22:40:18.954Z,82.45
2019-02-21T22:42:48.081Z,82.18
2019-02-21T22:45:17.236Z,81.64
2019-02-21T22:47:46.343Z,81.77
2019-02-21T22:50:16.824Z,82.22
2019-02-21T22:52:45.937Z,81.89
2019-02-21T22:55:15.071Z,81.91
2019-02-21T22:57:44.220Z,81.40
2019-02-21T23:00:48.079Z,81.92
2019-02-21T23:03:18.819Z,81.87
2019-02-21T23:06:13.137Z,82.34
2019-02-21T23:08:44.857Z,81.64
2019-02-21T23:11:13.986Z,81.52
2019-02-21T23:13:43.108Z,81.88
2019-02-21T23:16:12.240Z,82.64
2019-02-21T23:18:41.358Z,82.90
2019-02-21T23:21:11.586Z,82.58
2019-02-21T23:23:41.042Z,82.63
2019-02-21T23:26:10.239Z,82.68
2019-02-21T23:28:39.363Z,82.75
2019-02-21T23:31:08.740Z,82.95
2019-02-21T23:33:39.501Z,82.90
2019-02-21T23:36:08.623Z,82.62
2019-02-21T23:38:37.746Z,82.50
2019-02-21T23:41:06.871Z,82.94
2019-02-21T23:43:35.992Z,83.16
2019-02-21T23:46:05.116Z,82.88
2019-02-21T23:48:34.244Z,82.66
2019-02-21T23:51:03.365Z,83.21
2019-02-21T23:53:32.495Z,83.02
2019-02-21T23:56:01.623Z,83.22
2019-02-21T23:58:30.756Z,83.30
